createdAt,value
2023-03-21T00:01:29.841Z,19.10
2023-03-21T00:03:56.582Z,15.38
2023-03-21T00:06:23.333Z,17.33
2023-03-21T00:08:50.257Z,15.40
2023-03-21T00:11:16.987Z,15.85
2023-03-21T00:13:43.875Z,13.95
2023-03-21T00:16:22.255Z,17.08
2023-03-21T00:18:57.553Z,15.55
2023-03-21T00:21:55.544Z,16.00
2023-03-21T00:24:12.763Z,14.75
2023-03-21T00:26:39.425Z,16.33
2023-03-21T00:29:06.166Z,16.80
2023-03-21T00:31:33.034Z,13.70
2023-03-21T00:34:00.271Z,13.30
2023-03-21T00:36:27.118Z,16.05
2023-03-21T00:38:54.400Z,14.05
2023-03-21T00:41:39.242Z,16.45
2023-03-21T00:44:08.286Z,15.63
2023-03-21T00:46:44.009Z,15.65
2023-03-21T00:49:12.186Z,16.30
2023-03-21T00:51:38.855Z,15.20
2023-03-21T00:54:05.851Z,16.83
2023-03-21T00:56:32.837Z,14.50
2023-03-21T00:58:59.610Z,14.48
2023-03-21T01:01:26.316Z,14.30
2023-03-21T01:03:53.000Z,16.75
2023-03-21T01:06:19.853Z,17.63
2023-03-21T01:08:53.236Z,14.80
2023-03-21T01:11:23.516Z,17.83
2023-03-21T01:13:56.244Z,15.23
2023-03-21T01:16:28.884Z,19.90
2023-03-21T01:18:55.681Z,16.67
2023-03-21T01:21:22.485Z,16.73
2023-03-21T01:23:49.245Z,20.80
2023-03-21T01:26:15.999Z,19.65
2023-03-21T01:28:43.901Z,24.50
2023-03-21T01:31:13.584Z,21.48
2023-03-21T01:33:40.910Z,25.80
2023-03-21T01:36:13.173Z,25.67
2023-03-21T01:38:41.765Z,28.13
2023-03-21T01:41:26.284Z,25.58
2023-03-21T01:43:55.671Z,28.50
2023-03-21T01:46:45.326Z,26.33
2023-03-21T01:49:19.033Z,29.48
2023-03-21T01:51:56.686Z,31.88
2023-03-21T01:54:30.224Z,29.02
2023-03-21T01:57:00.804Z,25.13
2023-03-21T01:59:34.907Z,33.40
2023-03-21T02:02:04.152Z,29.63
2023-03-21T02:04:30.894Z,27.15
2023-03-21T02:07:03.028Z,31.02
2023-03-21T02:09:34.294Z,30.98
2023-03-21T02:12:01.778Z,36.00
2023-03-21T02:14:33.189Z,34.08
2023-03-21T02:17:14.602Z,35.97
2023-03-21T02:20:08.404Z,37.17
2023-03-21T02:22:35.029Z,35.60
2023-03-21T02:25:22.464Z,36.92
2023-03-21T02:28:30.591Z,38.15
2023-03-21T02:31:16.014Z,41.20
2023-03-21T02:33:45.623Z,37.30
2023-03-21T02:36:15.108Z,39.85
2023-03-21T02:39:10.428Z,40.00
2023-03-21T02:42:02.787Z,40.83
2023-03-21T02:44:41.426Z,42.88
2023-03-21T02:47:24.145Z,40.97
2023-03-21T02:49:57.786Z,42.42
2023-03-21T02:52:39.020Z,43.20
2023-03-21T02:55:11.655Z,43.33
2023-03-21T02:57:43.124Z,41.33
2023-03-21T03:00:17.481Z,43.05
2023-03-21T03:02:44.821Z,45.42
2023-03-21T03:05:21.255Z,44.10
2023-03-21T03:07:54.741Z,42.00
2023-03-21T03:11:05.824Z,44.88
2023-03-21T03:13:54.070Z,44.28
2023-03-21T03:16:32.618Z,42.22
2023-03-21T03:19:01.272Z,45.53
2023-03-21T03:21:51.413Z,43.00
2023-03-21T03:24:24.455Z,42.13
2023-03-21T03:27:03.221Z,41.33
2023-03-21T03:29:33.795Z,42.90
2023-03-21T03:32:16.857Z,43.00
2023-03-21T03:34:48.424Z,45.40
2023-03-21T03:37:18.735Z,47.88
2023-03-21T03:39:53.767Z,44.85
2023-03-21T03:42:28.767Z,50.08
2023-03-21T03:44:56.407Z,50.00
2023-03-21T03:47:47.732Z,49.88
2023-03-21T03:50:35.039Z,48.00
2023-03-21T03:53:24.918Z,48.60
2023-03-21T03:55:53.412Z,46.60
2023-03-21T03:58:24.248Z,48.20
2023-03-21T04:00:55.363Z,51.38
2023-03-21T04:03:22.283Z,50.17
2023-03-21T04:05:49.069Z,54.70
2023-03-21T04:08:17.007Z,55.00
2023-03-21T04:10:44.146Z,50.70
2023-03-21T04:13:11.221Z,49.58
2023-03-21T04:15:38.211Z,51.83
2023-03-21T04:18:04.961Z,54.70
2023-03-21T04:20:36.986Z,51.55
2023-03-21T04:23:04.992Z,51.63
2023-03-21T04:25:34.944Z,52.63
2023-03-21T04:28:02.347Z,50.95
2023-03-21T04:30:29.965Z,50.63
2023-03-21T04:32:56.755Z,51.97
2023-03-21T04:35:24.569Z,48.92
2023-03-21T04:37:51.475Z,52.90
2023-03-21T04:40:18.715Z,50.83
2023-03-21T04:42:47.116Z,52.55
2023-03-21T04:45:15.596Z,50.88
2023-03-21T04:47:42.306Z,51.55
2023-03-21T04:50:10.768Z,50.88
2023-03-21T04:52:37.500Z,50.58
2023-03-21T04:55:04.705Z,53.60
2023-03-21T04:57:31.550Z,53.55
2023-03-21T04:59:58.257Z,50.13
2023-03-21T05:02:24.982Z,53.97
2023-03-21T05:04:51.769Z,53.65
2023-03-21T05:07:18.529Z,55.65
2023-03-21T05:09:45.221Z,52.03
2023-03-21T05:12:11.865Z,50.67
2023-03-21T05:14:38.572Z,60.70
2023-03-21T05:17:05.606Z,52.15
2023-03-21T05:19:32.616Z,57.45
2023-03-21T05:21:59.334Z,55.50
2023-03-21T05:24:26.360Z,54.80
2023-03-21T05:26:53.045Z,55.53
2023-03-21T05:29:20.139Z,54.63
2023-03-21T05:31:46.962Z,53.47
2023-03-21T05:34:14.396Z,59.15
2023-03-21T05:36:41.246Z,59.22
2023-03-21T05:39:08.160Z,57.47
2023-03-21T05:41:34.841Z,64.05
2023-03-21T05:44:01.634Z,58.05
2023-03-21T05:46:28.467Z,56.22
2023-03-21T05:48:55.275Z,58.88
2023-03-21T05:51:22.047Z,63.03
2023-03-21T05:53:49.079Z,62.00
2023-03-21T05:56:15.968Z,56.30
2023-03-21T05:58:42.760Z,57.90
2023-03-21T06:01:09.737Z,57.53
2023-03-21T06:03:36.570Z,59.70
2023-03-21T06:06:03.381Z,58.10
2023-03-21T06:08:30.438Z,61.08
2023-03-21T06:10:57.171Z,60.70
2023-03-21T06:13:24.057Z,60.38
2023-03-21T06:15:50.800Z,60.85
2023-03-21T06:18:17.663Z,55.55
2023-03-21T06:20:48.590Z,60.22
2023-03-21T06:23:17.797Z,58.40
2023-03-21T06:25:44.734Z,55.60
2023-03-21T06:28:11.537Z,57.10
2023-03-21T06:30:38.262Z,61.15
2023-03-21T06:33:05.014Z,63.33
2023-03-21T06:35:31.832Z,57.22
2023-03-21T06:37:58.626Z,56.67
2023-03-21T06:40:25.459Z,58.33
2023-03-21T06:42:52.234Z,62.38
2023-03-21T06:45:19.069Z,58.70
2023-03-21T06:47:45.994Z,59.97
2023-03-21T06:50:12.927Z,55.42
2023-03-21T06:52:39.608Z,58.67
2023-03-21T06:55:06.859Z,57.75
2023-03-21T06:57:33.698Z,57.08
2023-03-21T07:00:00.824Z,55.50
2023-03-21T07:02:28.712Z,55.95
2023-03-21T07:04:55.821Z,65.07
2023-03-21T07:07:26.365Z,60.47
2023-03-21T07:09:53.211Z,63.50
2023-03-21T07:12:20.470Z,65.80
2023-03-21T07:14:47.501Z,61.83
2023-03-21T07:17:14.443Z,61.30
2023-03-21T07:19:43.271Z,65.53
2023-03-21T07:22:11.674Z,71.20
2023-03-21T07:24:38.569Z,72.40
2023-03-21T07:27:06.446Z,75.07
2023-03-21T07:29:33.546Z,74.43
2023-03-21T07:32:07.395Z,75.50
2023-03-21T07:34:35.123Z,77.93
2023-03-21T07:37:02.234Z,73.45
2023-03-21T07:39:29.866Z,73.63
2023-03-21T07:41:56.948Z,80.20
2023-03-21T07:44:24.196Z,75.15
2023-03-21T07:46:51.466Z,72.30
2023-03-21T07:49:18.437Z,78.03
2023-03-21T07:51:45.520Z,70.00
2023-03-21T07:54:13.073Z,76.05
2023-03-21T07:56:40.512Z,71.30
2023-03-21T07:59:08.410Z,79.70
2023-03-21T08:01:35.323Z,72.25
2023-03-21T08:04:02.385Z,72.68
2023-03-21T08:06:29.397Z,69.80
2023-03-21T08:08:56.288Z,77.30
2023-03-21T08:11:23.411Z,77.65
2023-03-21T08:13:50.778Z,72.90
2023-03-21T08:16:18.429Z,69.22
2023-03-21T08:18:49.162Z,75.38
2023-03-21T08:21:16.533Z,73.45
2023-03-21T08:23:43.490Z,72.53
2023-03-21T08:26:10.519Z,62.40
2023-03-21T08:28:37.963Z,71.78
2023-03-21T08:31:09.999Z,69.40
2023-03-21T08:33:37.128Z,67.18
2023-03-21T08:36:05.932Z,68.88
2023-03-21T08:38:33.843Z,67.22
2023-03-21T08:41:02.144Z,64.18
2023-03-21T08:43:29.533Z,63.95
2023-03-21T08:45:57.151Z,69.75
2023-03-21T08:48:24.224Z,70.10
2023-03-21T08:50:51.357Z,77.88
2023-03-21T08:53:18.245Z,72.47
2023-03-21T08:55:45.377Z,71.25
2023-03-21T08:58:12.670Z,66.55
2023-03-21T09:00:39.615Z,62.03
2023-03-21T09:03:06.565Z,53.25
2023-03-21T09:05:33.557Z,59.97
2023-03-21T09:08:04.352Z,59.10
2023-03-21T09:10:34.911Z,55.67
2023-03-21T09:13:01.838Z,52.28
2023-03-21T09:15:28.716Z,59.50
2023-03-21T09:17:56.625Z,56.75
2023-03-21T09:20:26.397Z,50.10
2023-03-21T09:22:54.761Z,52.28
2023-03-21T09:25:21.782Z,53.25
2023-03-21T09:27:49.576Z,53.30
2023-03-21T09:30:18.571Z,57.40
2023-03-21T09:32:46.303Z,53.80
2023-03-21T09:35:13.205Z,54.90
2023-03-21T09:37:40.219Z,59.10
2023-03-21T09:40:11.739Z,62.03
2023-03-21T09:42:44.406Z,54.00
2023-03-21T09:45:29.851Z,57.53
2023-03-21T09:47:57.303Z,56.73
2023-03-21T09:50:35.151Z,59.63
2023-03-21T09:53:18.233Z,57.50
2023-03-21T09:55:46.887Z,54.95
2023-03-21T09:58:33.142Z,52.20
2023-03-21T10:01:15.351Z,52.83
2023-03-21T10:03:43.758Z,65.50
2023-03-21T10:06:36.386Z,59.78
2023-03-21T10:12:29.034Z,54.20
2023-03-21T10:15:01.992Z,55.72
2023-03-21T10:17:40.746Z,55.20
2023-03-21T10:20:24.221Z,52.75
2023-03-21T10:22:54.293Z,51.10
2023-03-21T10:25:38.106Z,52.45
2023-03-21T10:28:08.602Z,57.00
2023-03-21T10:30:55.100Z,51.60
2023-03-21T10:33:37.690Z,57.63
2023-03-21T10:36:13.468Z,57.25
2023-03-21T10:41:15.330Z,55.20
2023-03-21T10:43:46.596Z,52.53
2023-03-21T10:46:18.374Z,53.22
2023-03-21T10:48:50.421Z,53.17
2023-03-21T10:51:23.241Z,53.03
2023-03-21T10:53:54.981Z,56.70
2023-03-21T10:56:30.829Z,48.05
2023-03-21T10:59:02.361Z,47.10
2023-03-21T11:01:45.615Z,40.28
2023-03-21T11:04:27.493Z,42.42
2023-03-21T11:07:04.735Z,40.17
2023-03-21T11:09:54.727Z,39.15
2023-03-21T11:12:38.160Z,41.17
2023-03-21T11:15:26.742Z,46.17
2023-03-21T11:17:53.961Z,47.53
2023-03-21T11:20:21.730Z,45.35
2023-03-21T11:22:49.864Z,46.80
2023-03-21T11:25:37.369Z,44.95
2023-03-21T11:28:14.030Z,40.85
2023-03-21T11:30:54.771Z,40.53
2023-03-21T11:33:27.356Z,42.45
2023-03-21T11:36:01.243Z,39.13
2023-03-21T11:38:40.625Z,40.22
2023-03-21T11:41:08.090Z,40.97
2023-03-21T11:43:39.615Z,39.95
2023-03-21T11:46:09.500Z,40.78
2023-03-21T11:48:41.783Z,42.47
2023-03-21T11:51:31.503Z,38.65
2023-03-21T11:54:20.875Z,42.55
2023-03-21T11:56:51.414Z,38.42
2023-03-21T11:59:33.125Z,36.35
2023-03-21T12:02:44.210Z,34.67
2023-03-21T12:05:19.358Z,34.58
2023-03-21T12:07:48.817Z,38.75
2023-03-21T12:10:38.190Z,36.90
2023-03-21T12:13:13.836Z,38.10
2023-03-21T12:16:14.693Z,33.45
2023-03-21T12:18:50.153Z,33.70
2023-03-21T12:21:22.350Z,30.02
2023-03-21T12:24:01.162Z,31.58
2023-03-21T12:26:51.058Z,32.72
2023-03-21T12:29:39.199Z,34.85
2023-03-21T12:32:26.929Z,37.05
2023-03-21T12:35:21.251Z,35.10
2023-03-21T12:38:06.706Z,31.10
2023-03-21T12:41:01.705Z,29.42
2023-03-21T12:43:35.972Z,35.50
2023-03-21T12:46:19.080Z,32.10
2023-03-21T12:48:50.605Z,35.10
2023-03-21T12:51:22.521Z,31.45
2023-03-21T12:54:16.659Z,31.83
2023-03-21T12:57:04.500Z,31.98
2023-03-21T13:00:02.753Z,31.27
2023-03-21T13:02:38.840Z,36.95
2023-03-21T13:05:19.828Z,34.20
2023-03-21T13:07:55.229Z,35.03
2023-03-21T13:10:22.189Z,36.22
2023-03-21T13:13:14.839Z,31.33
2023-03-21T13:16:18.676Z,29.65
2023-03-21T13:19:04.705Z,31.10
2023-03-21T13:21:42.936Z,31.30
2023-03-21T13:24:33.006Z,29.77
2023-03-21T13:27:06.804Z,30.25
2023-03-21T13:29:49.847Z,25.40
2023-03-21T13:32:40.180Z,29.13
2023-03-21T13:35:18.494Z,23.83
2023-03-21T13:38:14.906Z,23.42
2023-03-21T13:41:15.882Z,23.55
2023-03-21T13:43:51.853Z,24.08
2023-03-21T13:46:34.084Z,22.60
2023-03-21T13:49:10.333Z,26.70
2023-03-21T13:51:37.045Z,22.90
2023-03-21T13:54:16.355Z,21.23
2023-03-21T13:56:46.055Z,19.55
2023-03-21T13:59:17.142Z,19.42
2023-03-21T14:02:11.784Z,17.48
2023-03-21T14:04:43.299Z,19.30
2023-03-21T14:07:27.434Z,17.48
2023-03-21T14:10:02.187Z,22.17
2023-03-21T14:12:38.091Z,20.13
2023-03-21T14:15:26.470Z,16.40
2023-03-21T14:18:06.444Z,17.00
2023-03-21T14:20:43.148Z,24.58
2023-03-21T14:23:16.045Z,20.65
2023-03-21T14:25:47.575Z,19.33
2023-03-21T14:28:23.963Z,19.65
2023-03-21T14:30:55.275Z,17.48
2023-03-21T14:33:40.610Z,29.85
2023-03-21T14:36:14.008Z,21.40
2023-03-21T14:38:41.904Z,32.08
2023-03-21T14:41:23.024Z,24.55
2023-03-21T14:44:12.527Z,25.33
2023-03-21T14:46:39.673Z,21.10
2023-03-21T14:49:26.703Z,21.27
2023-03-21T14:51:56.874Z,21.90
2023-03-21T14:54:24.297Z,18.92
2023-03-21T14:56:55.422Z,19.77
2023-03-21T14:59:25.393Z,21.98
2023-03-21T15:01:54.149Z,20.45
2023-03-21T15:04:21.639Z,19.88
2023-03-21T15:07:04.168Z,22.77
2023-03-21T15:09:35.254Z,15.85
2023-03-21T15:12:08.869Z,17.17
2023-03-21T15:14:41.057Z,19.77
2023-03-21T15:17:41.130Z,18.15
2023-03-21T15:20:21.716Z,15.73
2023-03-21T15:23:01.493Z,16.80
2023-03-21T15:25:34.477Z,23.20
2023-03-21T15:28:06.625Z,43.55
2023-03-21T15:30:34.785Z,19.73
2023-03-21T15:33:28.021Z,19.83
2023-03-21T15:36:13.707Z,19.48
2023-03-21T15:42:54.040Z,17.23
2023-03-21T15:51:12.465Z,17.23
2023-03-21T15:54:26.061Z,16.92
2023-03-21T16:00:41.666Z,20.02
2023-03-21T16:03:34.940Z,16.17
2023-03-21T16:06:21.078Z,17.42
2023-03-21T16:08:51.332Z,18.25
2023-03-21T16:11:28.506Z,22.13
2023-03-21T16:13:58.723Z,18.58
2023-03-21T16:16:29.936Z,22.75
2023-03-21T16:18:59.511Z,17.63
2023-03-21T16:21:29.439Z,19.65
2023-03-21T16:23:57.845Z,18.70
2023-03-21T16:26:45.536Z,21.25
2023-03-21T16:29:19.092Z,22.90
2023-03-21T16:32:07.301Z,21.45
2023-03-21T16:41:30.379Z,19.05
2023-03-21T16:43:57.860Z,26.55
2023-03-21T16:46:26.828Z,20.45
2023-03-21T16:52:09.921Z,22.80
2023-03-21T16:54:58.253Z,20.02
2023-03-21T16:57:47.819Z,19.58
2023-03-21T17:00:18.143Z,23.23
2023-03-21T17:02:50.751Z,29.45
2023-03-21T17:05:19.279Z,23.77
2023-03-21T17:07:53.863Z,25.17
2023-03-21T17:10:36.247Z,24.83
2023-03-21T17:30:21.935Z,25.30
2023-03-21T18:36:24.515Z,33.40
2023-03-21T18:39:34.957Z,34.70
2023-03-21T18:42:38.426Z,34.95
2023-03-21T18:45:14.922Z,39.30
2023-03-21T18:47:46.225Z,33.67
2023-03-21T18:50:25.071Z,36.50
2023-03-21T18:52:59.620Z,34.67
2023-03-21T19:01:12.092Z,35.58
2023-03-21T19:04:11.809Z,35.30
2023-03-21T19:06:44.955Z,33.95
2023-03-21T19:09:18.654Z,39.28
2023-03-21T19:12:15.417Z,31.77
2023-03-21T19:15:36.276Z,30.70
2023-03-21T19:18:50.019Z,31.92
2023-03-21T19:21:21.420Z,29.17
2023-03-21T19:26:43.947Z,33.00
2023-03-21T19:29:11.661Z,36.35
2023-03-21T19:31:41.627Z,29.83
2023-03-21T19:34:10.447Z,29.67
2023-03-21T19:36:46.016Z,34.25
2023-03-21T19:39:17.920Z,32.65
2023-03-21T19:41:50.250Z,32.53
2023-03-21T19:44:17.907Z,32.20
2023-03-21T19:46:47.895Z,34.92
2023-03-21T19:49:20.272Z,30.27
2023-03-21T19:51:49.527Z,31.85
2023-03-21T19:54:16.442Z,33.53
2023-03-21T19:56:47.686Z,35.72
2023-03-21T19:59:15.630Z,32.92
2023-03-21T20:01:45.793Z,35.38
2023-03-21T20:04:14.560Z,32.63
2023-03-21T20:06:47.130Z,34.00
2023-03-21T20:12:02.004Z,38.10
2023-03-21T20:14:33.370Z,37.15
2023-03-21T20:17:11.279Z,39.42
2023-03-21T20:19:41.396Z,34.83
2023-03-21T20:22:24.472Z,38.85
2023-03-21T20:25:02.757Z,34.58
2023-03-21T20:27:30.734Z,36.38
2023-03-21T20:30:09.548Z,35.22
2023-03-21T20:32:39.316Z,38.83
2023-03-21T20:35:19.132Z,53.13
2023-03-21T20:41:09.690Z,36.47
2023-03-21T20:44:39.197Z,38.97
2023-03-21T20:46:37.670Z,43.38
2023-03-21T20:49:08.066Z,42.30
2023-03-21T20:54:30.554Z,45.95
2023-03-21T20:57:06.693Z,46.25
2023-03-21T20:59:58.810Z,44.67
2023-03-21T21:02:37.892Z,48.67
2023-03-21T21:07:57.345Z,44.28
2023-03-21T21:10:36.467Z,46.40
2023-03-21T21:13:19.415Z,48.40
2023-03-21T21:15:46.910Z,51.20
2023-03-21T21:18:17.398Z,48.65
2023-03-21T21:21:00.422Z,49.70
2023-03-21T21:23:30.352Z,52.63
2023-03-21T21:26:34.337Z,53.40
2023-03-21T21:29:50.225Z,54.40
2023-03-21T21:32:18.990Z,56.65
2023-03-21T21:34:46.364Z,63.47
2023-03-21T21:37:13.181Z,55.03
2023-03-21T21:39:41.708Z,51.08
2023-03-21T21:42:08.523Z,52.75
2023-03-21T21:44:35.285Z,56.22
2023-03-21T21:47:02.094Z,57.63
2023-03-21T21:49:28.866Z,58.15
2023-03-21T21:51:55.673Z,60.25
2023-03-21T21:54:22.487Z,62.50
2023-03-21T21:56:49.641Z,61.65
2023-03-21T21:59:16.407Z,61.40
2023-03-21T22:01:43.151Z,61.92
2023-03-21T22:04:10.161Z,64.25
2023-03-21T22:06:37.510Z,59.03
2023-03-21T22:09:05.140Z,60.00
2023-03-21T22:11:31.965Z,61.80
2023-03-21T22:13:58.820Z,60.08
2023-03-21T22:16:25.780Z,55.53
2023-03-21T22:18:52.657Z,61.55
2023-03-21T22:21:19.469Z,62.20
2023-03-21T22:23:46.355Z,56.67
2023-03-21T22:26:14.482Z,62.97
2023-03-21T22:28:42.359Z,61.08
2023-03-21T22:31:13.193Z,65.30
2023-03-21T22:33:40.040Z,62.72
2023-03-21T22:36:08.376Z,59.70
2023-03-21T22:38:35.455Z,58.08
2023-03-21T22:41:04.074Z,60.28
2023-03-21T22:43:31.739Z,64.80
2023-03-21T22:45:58.757Z,62.35
2023-03-21T22:48:26.222Z,58.55
2023-03-21T22:50:53.259Z,68.03
2023-03-21T22:53:20.125Z,65.13
2023-03-21T22:55:47.422Z,64.93
2023-03-21T22:58:14.304Z,63.72
2023-03-21T23:00:41.522Z,69.97
2023-03-21T23:03:15.129Z,60.13
2023-03-21T23:05:42.760Z,63.80
2023-03-21T23:08:10.029Z,54.88
2023-03-21T23:10:38.398Z,56.70
2023-03-21T23:13:05.487Z,58.42
2023-03-21T23:15:32.329Z,58.38
2023-03-21T23:17:59.074Z,60.13
2023-03-21T23:20:25.880Z,59.95
2023-03-21T23:22:52.628Z,47.55
2023-03-21T23:25:19.410Z,47.78
2023-03-21T23:27:46.431Z,46.72
2023-03-21T23:30:13.280Z,52.85
2023-03-21T23:32:40.082Z,45.38
2023-03-21T23:35:07.599Z,47.17
2023-03-21T23:37:34.363Z,48.40
2023-03-21T23:40:01.191Z,45.88
2023-03-21T23:42:29.686Z,44.08
2023-03-21T23:44:56.444Z,43.97
2023-03-21T23:47:23.290Z,44.78
2023-03-21T23:49:50.142Z,44.83
2023-03-21T23:52:17.162Z,40.55
2023-03-21T23:54:44.020Z,44.78
2023-03-21T23:57:10.860Z,46.88
2023-03-21T23:59:37.612Z,43.25
